This is the latest recevied weather packets stored in our database for station/object SV2ASS-2. If no packets are shown the sender has not sent any weather packets the latest 10 day(s).
| Time | Temp. | Humidity | Pressure | Rain* | Wind** | Luminosity | Snow |
|---|---|---|---|---|---|---|---|
| 1777765365 | 7.78° C | 62% | 1021.4 hPa | - | - | - | - |
| 1777764465 | 7.78° C | 63% | 1021.6 hPa | - | - | - | - |
| 1777763565 | 8.33° C | 61% | 1021.6 hPa | - | - | - | - |
| 1777762664 | 7.78° C | 63% | 1021.8 hPa | - | - | - | - |
| 1777761764 | 8.33° C | 62% | 1021.6 hPa | - | - | - | - |
| 1777760863 | 8.33° C | 62% | 1021.4 hPa | - | - | - | - |
| 1777759963 | 9.44° C | 61% | 1021.9 hPa | - | - | - | - |
| 1777759063 | 10° C | 59% | 1022.3 hPa | - | - | - | - |
| 1777758163 | 10° C | 58% | 1022.5 hPa | - | - | - | - |
| 1777757263 | 11.67° C | 54% | 1022.8 hPa | - | - | - | - |
| 1777756362 | 11.11° C | 54% | 1022.8 hPa | - | - | - | - |
| 1777755470 | 8.89° C | 57% | 1022.6 hPa | - | - | - | - |
| 1777754569 | 8.89° C | 61% | 1022.1 hPa | - | - | - | - |
| 1777753669 | 9.44° C | 57% | 1022 hPa | - | - | - | - |
| 1777752769 | 9.44° C | 53% | 1021.9 hPa | - | - | - | - |
| 1777751869 | 9.44° C | 53% | 1022.2 hPa | - | - | - | - |
| 1777750969 | 9.44° C | 57% | 1022.2 hPa | - | - | - | - |
| 1777750069 | 10° C | 52% | 1022.1 hPa | - | - | - | - |
| 1777749169 | 10° C | 53% | 1021.9 hPa | - | - | - | - |
| 1777748269 | 10.56° C | 51% | 1021.9 hPa | - | - | - | - |
| 1777747369 | 10.56° C | 50% | 1021.8 hPa | - | - | - | - |
| 1777746469 | 10.56° C | 51% | 1021.7 hPa | - | - | - | - |
| 1777745569 | 11.11° C | 50% | 1021.7 hPa | - | - | - | - |
| 1777744668 | 11.11° C | 50% | 1021.6 hPa | - | - | - | - |
| 1777743769 | 11.11° C | 51% | 1021.5 hPa | - | - | - | - |
* Rain since midnight (hover to see other rain measurements)
** Current wind speed in m/s (hover to see current wind gust speed)